Time;durP1;ratioP1;P1;durP2;ratioP2;P2;SDS_P1;SDS_P2;PMS_P1;PMS_P2;Temp;Humidity;BMP_temperature;BMP_pressure;BME280_temperature;BME280_humidity;BME280_pressure;Samples;Min_cycle;Max_cycle;Signal;HPM_P1;HPM_P2
2022/10/04 00:02:19;;;;;;;5.17;4.70;;;;;;;6.75;100.00;101004.63;5082629;28;20642;-74
2022/10/04 00:04:53;;;;;;;4.33;3.97;;;;;;;6.73;100.00;101002.88;5076390;28;20548;-74
2022/10/04 00:07:23;;;;;;;5.20;4.70;;;;;;;6.70;100.00;101013.97;5082538;28;20295;-72
2022/10/04 00:09:53;;;;;;;5.80;5.20;;;;;;;6.67;100.00;101006.19;5076538;28;20588;-73
2022/10/04 00:12:26;;;;;;;5.00;4.60;;;;;;;6.65;100.00;101007.88;5080807;28;20186;-73
2022/10/04 00:14:56;;;;;;;5.07;4.50;;;;;;;6.62;100.00;101000.97;5078628;28;20623;-74
2022/10/04 00:17:30;;;;;;;5.80;5.30;;;;;;;6.61;100.00;100996.66;5075129;28;20232;-74
2022/10/04 00:19:56;;;;;;;5.20;4.80;;;;;;;6.62;100.00;100995.81;5081033;28;20211;-73
2022/10/04 00:22:23;;;;;;;5.67;5.17;;;;;;;6.63;100.00;100994.13;5073932;28;20210;-74
2022/10/04 00:25:08;;;;;;;5.57;5.07;;;;;;;6.64;100.00;100991.56;5077496;28;20653;-76
2022/10/04 00:27:35;;;;;;;5.30;4.80;;;;;;;6.64;100.00;100983.84;5079259;28;20212;-74
2022/10/04 00:30:01;;;;;;;5.43;5.03;;;;;;;6.65;100.00;100977.03;5074945;28;20189;-75
2022/10/04 00:32:27;;;;;;;5.47;5.03;;;;;;;6.64;100.00;100983.00;5079403;28;20556;-75
2022/10/04 00:34:53;;;;;;;5.83;5.33;;;;;;;6.62;100.00;100980.38;5077067;28;20273;-74
2022/10/04 00:37:21;;;;;;;5.93;5.40;;;;;;;6.62;100.00;100972.66;5076708;28;20249;-74
2022/10/04 00:39:57;;;;;;;6.13;5.63;;;;;;;6.61;100.00;100968.38;5080572;28;20195;-74
2022/10/04 00:42:38;;;;;;;6.43;5.83;;;;;;;6.58;100.00;100965.72;5078400;28;20210;-72
2022/10/04 00:45:17;;;;;;;6.23;5.63;;;;;;;6.54;100.00;100975.09;5076259;28;20174;-74
2022/10/04 00:47:45;;;;;;;6.43;5.77;;;;;;;6.50;100.00;100980.16;5073567;28;20207;-74
2022/10/04 00:50:17;;;;;;;5.80;5.33;;;;;;;6.46;100.00;100979.25;5074090;28;20226;-75
2022/10/04 00:52:49;;;;;;;5.50;5.00;;;;;;;6.43;100.00;100975.75;5077822;28;20188;-74
2022/10/04 00:55:52;;;;;;;5.40;4.90;;;;;;;6.37;100.00;100979.03;5071624;28;20233;-74
2022/10/04 00:58:36;;;;;;;5.50;4.80;;;;;;;6.34;100.00;100985.00;5073524;28;20218;-73
2022/10/04 01:01:03;;;;;;;6.80;6.20;;;;;;;6.34;100.00;100985.00;5073067;28;20197;-74
2022/10/04 01:03:39;;;;;;;7.57;6.50;;;;;;;6.36;100.00;100985.91;5075966;28;20621;-74
2022/10/04 01:06:08;;;;;;;8.50;6.67;;;;;;;6.35;100.00;100983.31;5071773;28;20267;-74
2022/10/04 01:08:39;;;;;;;6.87;6.27;;;;;;;6.33;100.00;100969.56;5077504;28;20248;-74
2022/10/04 01:11:28;;;;;;;6.20;5.60;;;;;;;6.30;100.00;100969.50;5074495;28;20189;-74
2022/10/04 01:14:00;;;;;;;6.70;5.77;;;;;;;6.27;100.00;100972.88;5082299;28;20710;-74
2022/10/04 01:16:27;;;;;;;6.13;5.63;;;;;;;6.28;100.00;100976.31;5075105;28;20241;-75
2022/10/04 01:18:53;;;;;;;6.03;5.57;;;;;;;6.26;100.00;100971.16;5074310;28;20608;-76
2022/10/04 01:21:23;;;;;;;6.20;5.70;;;;;;;6.27;100.00;100974.56;5078621;28;20193;-74
2022/10/04 01:23:50;;;;;;;6.53;5.93;;;;;;;6.28;100.00;100969.44;5079116;28;20191;-74
2022/10/04 01:26:31;;;;;;;6.73;6.13;;;;;;;6.27;100.00;100957.47;5074936;28;20678;-73
2022/10/04 01:29:07;;;;;;;6.73;6.13;;;;;;;6.27;100.00;100961.72;5074805;28;20211;-74
2022/10/04 01:31:37;;;;;;;6.30;5.80;;;;;;;6.27;100.00;100965.16;5076692;28;20191;-74
2022/10/04 01:34:04;;;;;;;6.33;5.73;;;;;;;6.28;100.00;100958.31;5078447;28;20177;-74
2022/10/04 01:36:30;;;;;;;6.67;6.17;;;;;;;6.27;100.00;100954.91;5080662;28;20258;-73
2022/10/04 01:38:56;;;;;;;7.07;5.90;;;;;;;6.28;100.00;100945.47;5080664;28;20201;-75
2022/10/04 01:41:28;;;;;;;7.33;6.63;;;;;;;6.26;100.00;100942.88;5078222;28;20281;-76
2022/10/04 01:43:59;;;;;;;6.70;6.10;;;;;;;6.23;100.00;100942.81;5075589;28;20197;-75
2022/10/04 01:46:30;;;;;;;6.30;5.80;;;;;;;6.19;100.00;100943.56;5073761;28;20178;-74
2022/10/04 01:48:58;;;;;;;6.17;5.57;;;;;;;6.17;100.00;100945.25;5077085;28;20495;-74
2022/10/04 01:51:29;;;;;;;5.63;5.13;;;;;;;6.13;100.00;100941.75;5078816;28;20616;-75
2022/10/04 01:54:00;;;;;;;6.07;5.60;;;;;;;6.09;100.00;100934.81;5077563;28;20195;-74
2022/10/04 01:56:38;;;;;;;6.07;5.47;;;;;;;6.06;100.00;100940.78;5075703;28;20194;-74
2022/10/04 01:59:06;;;;;;;6.20;5.67;;;;;;;6.03;100.00;100935.56;5073613;28;20695;-73
2022/10/04 02:01:53;;;;;;;6.10;5.60;;;;;;;5.99;100.00;100928.59;5075289;28;20711;-75
2022/10/04 02:04:26;;;;;;;6.20;5.60;;;;;;;5.99;100.00;100925.16;5076644;28;20274;-74
2022/10/04 02:06:55;;;;;;;6.67;5.17;;;;;;;5.98;100.00;100926.00;5077238;28;20170;-75
2022/10/04 02:09:33;;;;;;;5.90;5.40;;;;;;;5.98;100.00;100926.00;5078416;28;20289;-73
2022/10/04 02:11:59;;;;;;;6.20;5.60;;;;;;;5.98;100.00;100918.28;5081670;28;20262;-73
2022/10/04 02:14:28;;;;;;;6.23;5.60;;;;;;;5.98;100.00;100918.28;5079098;28;20204;-75
2022/10/04 02:16:53;;;;;;;6.67;5.63;;;;;;;6.00;100.00;100922.66;5079237;28;20698;-74
2022/10/04 02:19:30;;;;;;;6.37;5.67;;;;;;;6.02;100.00;100920.13;5079727;28;20203;-73
2022/10/04 02:21:56;;;;;;;5.90;5.40;;;;;;;6.04;100.00;100924.44;5082465;28;20185;-74
2022/10/04 02:24:22;;;;;;;6.23;5.73;;;;;;;6.03;100.00;100916.72;5085121;28;20668;-74
2022/10/04 02:26:51;;;;;;;7.73;7.00;;;;;;;6.05;100.00;100917.63;5086953;28;20186;-74
2022/10/04 02:29:19;;;;;;;7.90;7.10;;;;;;;6.05;100.00;100917.63;5080714;28;20583;-75
2022/10/04 02:34:30;;;;;;;6.73;5.80;;;;;;;6.01;100.00;100915.81;5081269;28;20293;-73
2022/10/04 02:36:56;;;;;;;6.57;5.97;;;;;;;5.99;100.00;100918.31;5084810;28;20631;-74
2022/10/04 02:39:26;;;;;;;6.27;5.67;;;;;;;5.98;100.00;100915.72;5081353;28;20182;-75
2022/10/04 02:41:59;;;;;;;5.93;5.43;;;;;;;5.93;100.00;100913.91;5071588;28;20186;-75
2022/10/04 02:44:36;;;;;;;6.27;5.77;;;;;;;5.90;100.00;100913.84;5080950;28;20240;-75
2022/10/04 02:47:24;;;;;;;7.83;5.80;;;;;;;5.87;100.00;100924.09;5082226;28;20554;-77
2022/10/04 02:49:52;;;;;;;6.50;6.00;;;;;;;5.85;100.00;100925.75;5078359;28;20679;-74
2022/10/04 02:52:33;;;;;;;7.03;6.43;;;;;;;5.85;100.00;100920.63;5076753;28;20252;-73
2022/10/04 02:55:06;;;;;;;6.60;6.10;;;;;;;5.84;100.00;100911.19;5075904;28;20216;-73
2022/10/04 02:57:33;;;;;;;6.27;5.67;;;;;;;5.83;100.00;100916.25;5080289;28;20858;-75
2022/10/04 03:00:25;;;;;;;7.10;6.50;;;;;;;5.83;100.00;100917.16;5079343;28;20190;-75
2022/10/04 03:03:16;;;;;;;7.07;6.47;;;;;;;5.82;100.00;100917.97;5072929;28;20571;-74
2022/10/04 03:05:43;;;;;;;6.97;6.37;;;;;;;5.80;100.00;100911.94;5076036;28;20268;-74
2022/10/04 03:08:10;;;;;;;7.13;6.47;;;;;;;5.80;100.00;100911.94;5073979;28;20215;-74
2022/10/04 03:10:36;;;;;;;7.00;6.40;;;;;;;5.82;100.00;100917.13;5082875;28;21039;-74
2022/10/04 03:13:02;;;;;;;7.13;6.43;;;;;;;5.81;100.00;100916.25;5074701;28;20269;-73
2022/10/04 03:15:28;;;;;;;7.33;6.63;;;;;;;5.80;100.00;100920.53;5075620;28;20211;-73
2022/10/04 03:17:53;;;;;;;7.07;6.43;;;;;;;5.80;100.00;100914.50;5077888;28;20216;-74
2022/10/04 03:20:20;;;;;;;7.57;6.87;;;;;;;5.79;100.00;100913.66;5076418;28;20190;-73
2022/10/04 03:22:49;;;;;;;7.00;6.30;;;;;;;5.78;100.00;100911.03;5082446;28;20185;-73
2022/10/04 03:25:23;;;;;;;7.63;7.03;;;;;;;5.76;100.00;100912.69;5073541;28;20180;-74
2022/10/04 03:27:49;;;;;;;6.53;5.93;;;;;;;5.75;100.00;100908.41;5076595;28;20225;-76
2022/10/04 03:30:18;;;;;;;6.33;5.83;;;;;;;5.73;100.00;100905.81;5079945;28;20179;-73
2022/10/04 03:32:45;;;;;;;5.67;5.27;;;;;;;5.70;100.00;100898.03;5078960;28;20194;-73
2022/10/04 03:35:39;;;;;;;6.17;5.67;;;;;;;5.68;100.00;100897.13;5073245;28;20864;-73
2022/10/04 03:38:07;;;;;;;5.77;5.37;;;;;;;5.68;100.00;100897.13;5079657;28;20364;-74
2022/10/04 03:40:36;;;;;;;6.27;5.77;;;;;;;5.70;100.00;100898.03;5075402;28;20702;-74
2022/10/04 03:43:04;;;;;;;6.87;6.30;;;;;;;5.73;100.00;100897.25;5071578;28;20182;-73
2022/10/04 03:45:32;;;;;;;5.63;5.23;;;;;;;5.77;100.00;100893.88;5066446;28;20215;-73
2022/10/04 03:48:04;;;;;;;5.73;5.23;;;;;;;5.80;100.00;100896.53;5077741;28;20201;-73
2022/10/04 03:50:43;;;;;;;6.00;5.50;;;;;;;5.83;100.00;100891.47;5068923;28;20188;-73
2022/10/04 03:53:27;;;;;;;5.33;4.93;;;;;;;5.87;100.00;100889.81;5079895;28;20185;-74
2022/10/04 03:55:52;;;;;;;5.43;5.03;;;;;;;5.89;100.00;100895.84;5072862;28;20218;-75
2022/10/04 03:58:19;;;;;;;5.17;4.70;;;;;;;5.94;100.00;100895.09;5073561;28;20223;-74
2022/10/04 04:00:55;;;;;;;6.30;5.80;;;;;;;6.01;100.00;100906.41;5076230;28;20278;-74
2022/10/04 04:03:21;;;;;;;6.10;5.50;;;;;;;6.07;100.00;100900.50;5069479;28;20277;-73
2022/10/04 04:06:02;;;;;;;5.47;5.07;;;;;;;6.14;100.00;100901.50;5076767;28;20198;-74
2022/10/04 04:08:40;;;;;;;5.93;5.43;;;;;;;6.19;100.00;100899.88;5077459;28;20753;-72
2022/10/04 04:11:12;;;;;;;6.00;5.50;;;;;;;6.23;100.00;100906.81;5073304;28;20197;-73
2022/10/04 04:14:22;;;;;;;6.10;5.60;;;;;;;6.23;100.00;100899.13;5070612;28;20197;-73
2022/10/04 04:16:47;;;;;;;5.90;5.50;;;;;;;6.23;100.00;100905.09;5054600;28;20226;-76
2022/10/04 04:19:17;;;;;;;6.67;6.07;;;;;;;6.25;100.00;100908.56;5051937;28;20204;-74
2022/10/04 04:21:43;;;;;;;6.43;5.93;;;;;;;6.28;100.00;100917.19;5062939;28;20199;-73
2022/10/04 04:24:23;;;;;;;6.73;6.23;;;;;;;6.31;100.00;100920.66;5070996;28;20196;-75
2022/10/04 04:26:56;;;;;;;6.87;6.30;;;;;;;6.33;100.00;100915.56;5070835;28;20200;-74
2022/10/04 04:29:32;;;;;;;6.53;6.03;;;;;;;6.36;100.00;100916.50;5074319;28;20225;-74
2022/10/04 04:32:04;;;;;;;6.27;5.77;;;;;;;6.42;100.00;100917.47;5081117;28;20548;-74
2022/10/04 04:34:33;;;;;;;6.80;6.30;;;;;;;6.45;100.00;100910.66;5072023;28;20571;-75
2022/10/04 04:37:01;;;;;;;7.00;6.40;;;;;;;6.51;100.00;100915.03;5074913;28;20629;-73
2022/10/04 04:42:09;;;;;;;6.43;6.00;;;;;;;6.60;100.00;100914.34;5077111;28;20663;-74
2022/10/04 04:44:37;;;;;;;6.33;5.83;;;;;;;6.64;100.00;100911.84;5075192;28;20891;-73
2022/10/04 04:47:21;;;;;;;6.07;5.60;;;;;;;6.67;100.00;100908.44;5076968;28;20182;-75
2022/10/04 04:49:46;;;;;;;6.30;5.80;;;;;;;6.71;100.00;100916.25;5071233;28;20192;-73
2022/10/04 04:52:18;;;;;;;6.77;6.27;;;;;;;6.75;100.00;100918.88;5070987;28;20578;-74
2022/10/04 04:54:46;;;;;;;6.27;5.73;;;;;;;6.76;100.00;100918.91;5070911;28;20216;-73
2022/10/04 04:57:15;;;;;;;6.73;6.10;;;;;;;6.79;100.00;100921.53;5069716;28;20335;-75
2022/10/04 04:59:46;;;;;;;7.13;6.43;;;;;;;6.83;100.00;100917.31;5076618;28;20294;-74
2022/10/04 05:02:33;;;;;;;6.40;5.90;;;;;;;6.85;100.00;100920.78;5073608;28;20187;-74
2022/10/04 05:05:25;;;;;;;8.27;6.03;;;;;;;6.84;100.00;100930.19;5072825;28;20190;-76
2022/10/04 05:08:15;;;;;;;7.43;6.47;;;;;;;6.80;100.00;100924.97;5073943;28;20197;-75
2022/10/04 05:10:48;;;;;;;6.60;6.00;;;;;;;6.80;100.00;100924.97;5073246;28;20183;-74
2022/10/04 05:13:15;;;;;;;6.13;5.53;;;;;;;6.79;100.00;100934.41;5071914;28;20184;-74
2022/10/04 05:15:42;;;;;;;7.70;6.13;;;;;;;6.82;100.00;100938.72;5072288;28;20265;-74
2022/10/04 05:18:44;;;;;;;6.53;5.93;;;;;;;6.85;100.00;100928.50;5078971;28;20284;-74
2022/10/04 05:21:24;;;;;;;7.13;6.53;;;;;;;6.91;100.00;100935.44;5037863;28;20549;-74
2022/10/04 05:23:50;;;;;;;8.73;7.60;;;;;;;6.90;100.00;100941.44;5071751;28;20202;-74
2022/10/04 05:26:28;;;;;;;8.13;7.33;;;;;;;6.90;100.00;100941.44;5079434;28;20186;-76
2022/10/04 05:28:58;;;;;;;11.30;8.30;;;;;;;6.87;100.00;100947.41;5076289;28;20194;-74
2022/10/04 05:31:35;;;;;;;11.50;7.60;;;;;;;6.84;100.00;100955.91;5080869;28;20195;-76
2022/10/04 05:34:01;;;;;;;8.33;7.53;;;;;;;6.82;100.00;100946.44;5080668;28;20183;-74
2022/10/04 05:36:38;;;;;;;8.40;7.50;;;;;;;6.80;100.00;100946.44;5078819;28;20227;-75
2022/10/04 05:39:28;;;;;;;7.07;6.47;;;;;;;6.77;100.00;100948.06;5075708;28;20215;-75
2022/10/04 05:42:00;;;;;;;8.07;7.37;;;;;;;6.74;100.00;100948.88;5076358;28;20187;-74
2022/10/04 05:44:44;;;;;;;7.50;6.90;;;;;;;6.74;100.00;100953.13;5077433;28;20177;-74
2022/10/04 05:47:13;;;;;;;7.60;6.90;;;;;;;6.77;100.00;100946.38;5076315;28;20184;-75
2022/10/04 05:49:45;;;;;;;7.67;6.93;;;;;;;6.80;100.00;100953.25;5074920;28;20216;-73
2022/10/04 05:52:33;;;;;;;7.07;6.50;;;;;;;6.82;100.00;100957.59;5075142;28;20185;-73
2022/10/04 05:55:14;;;;;;;6.97;6.40;;;;;;;6.84;100.00;100953.34;5072790;28;20920;-73
2022/10/04 05:57:46;;;;;;;7.50;6.80;;;;;;;6.83;100.00;100964.47;5081353;28;20292;-76
2022/10/04 06:00:11;;;;;;;6.67;6.13;;;;;;;6.85;100.00;100956.78;5074798;28;20235;-75
2022/10/04 06:02:39;;;;;;;5.77;5.23;;;;;;;6.91;100.00;100956.88;5080611;28;20621;-73
2022/10/04 06:05:08;;;;;;;5.30;4.80;;;;;;;6.95;100.00;100953.53;5076011;28;20308;-73
2022/10/04 06:07:49;;;;;;;4.90;4.50;;;;;;;7.00;100.00;100946.75;5075700;28;20219;-75
2022/10/04 06:10:45;;;;;;;5.27;4.80;;;;;;;7.08;100.00;100948.56;5078919;28;20191;-74
2022/10/04 06:13:50;;;;;;;4.27;3.97;;;;;;;7.15;100.00;100945.25;5079117;28;20568;-75
2022/10/04 06:16:19;;;;;;;4.50;4.10;;;;;;;7.24;100.00;100953.13;5029306;28;20253;-76
2022/10/04 06:19:03;;;;;;;4.60;4.30;;;;;;;7.34;100.00;100948.97;5078911;28;20215;-75
2022/10/04 06:21:29;;;;;;;4.93;4.53;;;;;;;7.40;100.00;100949.09;5076506;28;20649;-74
2022/10/04 06:24:09;;;;;;;5.23;4.80;;;;;;;7.47;100.00;100943.16;5081827;28;20235;-73
2022/10/04 06:26:46;;;;;;;5.27;4.80;;;;;;;7.50;100.00;100942.34;5080435;28;20256;-74
2022/10/04 06:29:24;;;;;;;5.90;5.40;;;;;;;7.57;100.00;100944.16;5075911;28;20203;-74
2022/10/04 06:32:08;;;;;;;5.57;4.97;;;;;;;7.62;100.00;100942.53;5084764;28;20189;-74
2022/10/04 06:34:36;;;;;;;6.23;5.80;;;;;;;7.67;100.00;100941.69;5081223;28;20205;-74
2022/10/04 06:37:30;;;;;;;6.00;5.43;;;;;;;7.74;100.00;100933.22;5077539;28;20321;-75
2022/10/04 06:40:05;;;;;;;7.03;6.43;;;;;;;7.82;100.00;100941.91;5083807;28;20189;-77
2022/10/04 06:42:50;;;;;;;7.17;6.57;;;;;;;7.89;100.00;100935.13;5087061;28;20197;-74
2022/10/04 06:45:30;;;;;;;6.13;5.60;;;;;;;7.95;100.00;100930.06;5077853;28;20200;-74
2022/10/04 06:48:15;;;;;;;6.20;5.70;;;;;;;8.02;100.00;100923.25;5082918;28;20209;-74
2022/10/04 06:50:50;;;;;;;6.50;5.90;;;;;;;8.07;100.00;100922.47;5083046;28;20721;-74
2022/10/04 06:53:35;;;;;;;6.50;5.90;;;;;;;8.15;100.00;100926.84;5075819;28;20284;-73
2022/10/04 06:56:23;;;;;;;6.07;5.60;;;;;;;8.21;100.00;100932.06;5077129;28;20213;-73
2022/10/04 06:59:17;;;;;;;6.23;5.73;;;;;;;8.28;100.00;100933.00;5079655;28;20203;-74
2022/10/04 07:01:56;;;;;;;6.33;5.83;;;;;;;8.32;100.00;100942.50;5075808;28;20271;-74
2022/10/04 07:04:35;;;;;;;6.70;6.17;;;;;;;8.35;100.00;100950.28;5081425;28;20620;-73
2022/10/04 07:07:24;;;;;;;6.67;6.07;;;;;;;8.39;100.00;100952.91;5078704;28;20178;-74
2022/10/04 07:10:08;;;;;;;6.83;6.30;;;;;;;8.48;100.00;100954.75;5080381;28;20216;-74
2022/10/04 07:12:38;;;;;;;7.63;7.03;;;;;;;8.51;100.00;100959.06;5082776;28;20181;-75
2022/10/04 07:15:15;;;;;;;7.50;6.80;;;;;;;8.50;100.00;100953.06;5081440;28;20202;-74
2022/10/04 07:17:44;;;;;;;7.03;6.50;;;;;;;8.51;100.00;100954.78;5077014;28;20542;-75
2022/10/04 07:20:19;;;;;;;7.50;6.90;;;;;;;8.57;100.00;100958.25;5080715;28;20548;-75
2022/10/04 07:22:50;;;;;;;7.77;7.03;;;;;;;8.58;100.00;100953.13;5087954;28;20196;-72
2022/10/04 07:25:20;;;;;;;7.20;6.60;;;;;;;8.61;100.00;100954.88;5082269;28;20284;-74
2022/10/04 07:30:44;;;;;;;7.97;7.37;;;;;;;8.69;100.00;100969.56;5081839;28;20274;-76
2022/10/04 07:33:15;;;;;;;7.87;7.27;;;;;;;8.71;100.00;100972.16;5084834;27;20169;-75
2022/10/04 07:35:49;;;;;;;8.43;7.80;;;;;;;8.74;100.00;100974.78;5080885;28;20209;-75
2022/10/04 07:38:14;;;;;;;7.83;7.20;;;;;;;8.79;100.00;100970.53;5081735;28;20207;-74
2022/10/04 07:40:57;;;;;;;7.73;7.03;;;;;;;8.94;100.00;100971.53;5087624;28;20612;-75
2022/10/04 07:43:32;;;;;;;8.47;7.67;;;;;;;9.10;100.00;100981.13;5087841;28;20185;-74
2022/10/04 07:46:43;;;;;;;10.83;7.90;;;;;;;9.27;100.00;100977.81;5083565;28;20271;-73
2022/10/04 07:49:18;;;;;;;8.57;7.87;;;;;;;9.39;100.00;100975.31;5075319;28;20208;-74
2022/10/04 07:51:52;;;;;;;9.13;8.27;;;;;;;9.53;100.00;100975.41;5077395;28;20837;-74
2022/10/04 07:54:39;;;;;;;9.47;8.63;;;;;;;9.60;100.00;100984.06;5083648;28;20192;-73
2022/10/04 07:57:17;;;;;;;10.33;9.43;;;;;;;9.60;100.00;100974.59;5080903;28;20263;-75
2022/10/04 08:00:04;;;;;;;10.57;9.67;;;;;;;9.65;100.00;100972.03;5083417;28;20268;-74
2022/10/04 08:02:45;;;;;;;9.80;8.97;;;;;;;9.75;100.00;100970.38;5078712;28;20191;-74
2022/10/04 08:05:27;;;;;;;11.17;10.23;;;;;;;9.85;100.00;100973.88;5081526;28;20272;-74
2022/10/04 08:08:37;;;;;;;10.47;9.57;;;;;;;10.03;100.00;100970.50;5076037;28;20201;-75
2022/10/04 08:11:20;;;;;;;10.33;9.40;;;;;;;10.25;100.00;100970.59;5078614;28;20326;-73
2022/10/04 08:14:23;;;;;;;9.37;8.53;;;;;;;10.51;100.00;100963.78;5078409;28;20232;-75
2022/10/04 08:17:01;;;;;;;10.50;9.60;;;;;;;10.79;100.00;100958.66;5077954;28;20212;-73
2022/10/04 08:20:03;;;;;;;10.10;9.20;;;;;;;10.88;100.00;100957.78;5078536;28;20186;-74
2022/10/04 08:22:32;;;;;;;9.30;8.50;;;;;;;10.98;100.00;100962.09;5083117;28;20959;-73
2022/10/04 08:25:03;;;;;;;9.40;8.60;;;;;;;11.09;100.00;100966.44;5076229;28;20194;-75
2022/10/04 08:30:59;;;;;;;10.33;9.37;;;;;;;11.41;100.00;100969.00;5085506;28;20351;-73
2022/10/04 08:33:49;;;;;;;9.77;8.87;;;;;;;11.56;100.00;100975.03;5080571;28;20194;-72
2022/10/04 08:36:53;;;;;;;9.03;8.23;;;;;;;11.64;100.00;100973.28;5081871;28;20213;-72
2022/10/04 08:39:52;;;;;;;8.73;7.93;;;;;;;11.69;100.00;100976.72;5079894;28;20279;-73
2022/10/04 08:42:26;;;;;;;8.90;8.10;;;;;;;11.74;100.00;100982.75;5078732;28;20188;-75
2022/10/04 08:45:01;;;;;;;9.90;9.00;;;;;;;11.96;100.00;100987.00;5079932;28;20218;-75
2022/10/04 08:47:57;;;;;;;11.43;10.43;;;;;;;12.16;100.00;100974.00;5082368;28;20209;-75
2022/10/04 08:50:28;;;;;;;11.70;10.70;;;;;;;12.39;100.00;100978.22;5082909;28;20234;-74
2022/10/04 08:53:14;;;;;;;11.43;10.53;;;;;;;12.51;100.00;100980.75;5081644;28;20197;-75
2022/10/04 08:56:17;;;;;;;11.40;10.50;;;;;;;12.68;100.00;100983.22;5081559;28;20222;-74
2022/10/04 08:59:05;;;;;;;12.40;11.47;;;;;;;12.74;100.00;100988.38;5084200;28;20204;-75
2022/10/04 09:01:49;;;;;;;12.73;11.63;;;;;;;12.80;100.00;100988.34;5081296;28;20189;-74
2022/10/04 09:04:33;;;;;;;13.07;11.90;;;;;;;12.91;100.00;100977.03;5079946;28;20197;-76
2022/10/04 09:07:07;;;;;;;10.97;10.17;;;;;;;13.14;100.00;100976.84;5081465;28;20672;-76
2022/10/04 09:10:16;;;;;;;10.70;9.90;;;;;;;13.53;100.00;100971.31;5075416;28;20191;-75
2022/10/04 09:12:55;;;;;;;10.77;9.80;;;;;;;13.88;100.00;100972.66;5082913;28;20183;-75
2022/10/04 09:15:35;;;;;;;10.20;9.40;;;;;;;13.94;100.00;100967.38;5084467;28;20888;-75
2022/10/04 09:18:25;;;;;;;9.83;8.93;;;;;;;13.86;100.00;100958.78;5085323;28;20201;-74
2022/10/04 09:21:00;;;;;;;9.40;8.60;;;;;;;13.66;100.00;100962.50;5081535;28;20719;-73
2022/10/04 09:23:28;;;;;;;10.07;9.23;;;;;;;13.49;100.00;100964.41;5081010;28;20596;-75
2022/10/04 09:26:18;;;;;;;9.57;8.77;;;;;;;13.38;100.00;100960.16;5084499;28;20266;-74
2022/10/04 09:28:58;;;;;;;9.80;8.93;;;;;;;13.25;100.00;100961.13;5082757;28;20194;-74
2022/10/04 09:32:09;;;;;;;9.03;8.23;;;;;;;13.11;100.00;100966.47;5085964;28;20290;-74
2022/10/04 09:35:02;;;;;;;9.57;8.67;;;;;;;13.02;100.00;100959.59;5073604;28;20290;-75
2022/10/04 09:37:58;;;;;;;9.47;8.67;;;;;;;12.96;100.00;100952.72;5084297;28;20235;-74
2022/10/04 09:40:27;;;;;;;9.10;8.30;;;;;;;13.04;100.00;100952.66;5083052;28;20652;-74
2022/10/04 09:43:17;;;;;;;9.00;8.30;;;;;;;13.16;100.00;100956.88;5084802;28;20230;-76
2022/10/04 09:45:57;;;;;;;9.80;8.90;;;;;;;13.22;100.00;100954.22;5084137;28;20180;-74
2022/10/04 09:48:24;;;;;;;9.47;8.73;;;;;;;13.24;100.00;100955.06;5083535;28;20253;-75
2022/10/04 09:51:09;;;;;;;10.07;9.27;;;;;;;13.25;100.00;100951.59;5087561;28;20247;-75
2022/10/04 09:54:22;;;;;;;9.93;9.13;;;;;;;13.20;100.00;100962.94;5084642;28;20954;-74
2022/10/04 09:57:29;;;;;;;10.17;9.27;;;;;;;13.21;100.00;100960.31;5071968;28;20199;-74
2022/10/04 10:00:09;;;;;;;10.50;9.70;;;;;;;13.31;100.00;100963.69;5084410;28;20184;-73
2022/10/04 10:02:57;;;;;;;9.90;9.10;;;;;;;13.43;100.00;100969.66;5086752;28;20645;-74
2022/10/04 10:05:54;;;;;;;11.90;10.87;;;;;;;13.43;100.00;100961.84;5084682;28;20172;-74
2022/10/04 10:08:56;;;;;;;11.60;10.57;;;;;;;13.33;100.00;100966.25;5084672;28;20607;-74
2022/10/04 10:15:12;;;;;;;12.67;11.57;;;;;;;13.27;100.00;100965.47;5082654;28;20593;-74
2022/10/04 10:18:02;;;;;;;12.10;11.13;;;;;;;13.35;100.00;100964.50;5090364;28;20200;-74
2022/10/04 10:20:50;;;;;;;12.23;11.23;;;;;;;13.49;100.00;100967.00;5093519;28;20200;-73
2022/10/04 10:23:34;;;;;;;12.50;11.47;;;;;;;13.63;100.00;100965.13;5076578;28;20269;-73
2022/10/04 10:26:25;;;;;;;13.20;12.20;;;;;;;13.77;100.00;100959.75;5087637;28;20177;-73
2022/10/04 10:29:09;;;;;;;13.53;12.43;;;;;;;13.72;100.00;100964.16;5088264;28;20204;-74
2022/10/04 10:31:58;;;;;;;13.87;12.67;;;;;;;13.68;100.00;100950.34;5084556;28;20599;-75
2022/10/04 10:34:23;;;;;;;12.13;11.13;;;;;;;13.78;100.00;100948.47;5082605;28;20211;-73
2022/10/04 10:37:23;;;;;;;12.37;11.27;;;;;;;13.87;100.00;100950.97;5089290;28;20617;-74
2022/10/04 10:40:22;;;;;;;11.37;10.47;;;;;;;13.89;100.00;100942.31;5083157;28;20194;-74
2022/10/04 10:43:02;;;;;;;11.03;10.13;;;;;;;14.05;100.00;100950.75;5082611;28;20722;-74
2022/10/04 10:45:37;;;;;;;11.00;10.00;;;;;;;14.17;100.00;100940.19;5082828;28;20924;-74
2022/10/04 10:48:21;;;;;;;10.33;9.43;;;;;;;14.17;100.00;100950.59;5084959;28;20235;-75
2022/10/04 10:51:14;;;;;;;10.97;9.97;;;;;;;14.08;100.00;100948.13;5081604;28;20294;-75
2022/10/04 10:54:17;;;;;;;9.77;8.97;;;;;;;14.07;100.00;100944.66;5069013;28;20291;-74
2022/10/04 10:57:02;;;;;;;9.80;8.90;;;;;;;14.24;100.00;100939.22;5075016;28;20266;-74
2022/10/04 11:00:03;;;;;;;10.13;9.33;;;;;;;14.25;100.00;100938.34;5079720;28;20192;-74
2022/10/04 11:02:46;;;;;;;10.43;9.53;;;;;;;14.31;100.00;100927.84;5083280;28;20276;-74
2022/10/04 11:05:36;;;;;;;9.10;8.40;;;;;;;14.39;100.00;100927.72;5078634;28;20188;-74
2022/10/04 11:08:04;;;;;;;9.97;9.07;;;;;;;14.51;100.00;100937.13;5078511;28;20205;-74
2022/10/04 11:10:48;;;;;;;9.97;9.07;;;;;;;14.57;100.00;100934.44;5085134;28;20189;-74
2022/10/04 11:13:49;;;;;;;8.93;8.13;;;;;;;14.69;100.00;100920.38;5084019;28;20795;-76
2022/10/04 11:16:33;;;;;;;8.40;7.70;;;;;;;14.98;100.00;100910.34;5079514;28;20205;-74
2022/10/04 11:19:20;;;;;;;8.20;7.50;;;;;;;15.10;100.00;100910.13;5079227;28;20220;-74
2022/10/04 11:22:19;;;;;;;8.90;8.07;;;;;;;15.00;100.00;100908.59;5085614;28;20192;-74
2022/10/04 11:25:18;;;;;;;9.57;8.70;;;;;;;14.91;100.00;100904.38;5080750;28;20193;-73
2022/10/04 11:27:52;;;;;;;8.50;7.80;;;;;;;14.91;100.00;100905.22;5083273;28;20269;-74
2022/10/04 11:30:19;;;;;;;8.57;7.77;;;;;;;14.87;100.00;100908.81;5083491;28;20188;-74
2022/10/04 11:33:15;;;;;;;8.10;7.30;;;;;;;14.81;100.00;100898.47;5080769;28;20206;-74
2022/10/04 11:35:46;;;;;;;8.10;7.40;;;;;;;14.82;100.00;100889.78;5081931;28;20304;-74
2022/10/04 11:38:28;;;;;;;7.93;7.23;;;;;;;14.90;100.00;100889.63;5078111;28;20208;-75
2022/10/04 11:41:24;;;;;;;8.57;7.83;;;;;;;14.86;100.00;100890.56;5082799;28;20183;-76
2022/10/04 11:44:16;;;;;;;7.63;6.97;;;;;;;14.90;100.00;100885.28;5070424;28;20186;-73
2022/10/04 11:46:46;;;;;;;7.10;6.50;;;;;;;15.00;100.00;100892.94;5069497;28;20193;-75
2022/10/04 11:49:27;;;;;;;7.87;7.27;;;;;;;15.02;100.00;100893.78;5081030;28;20224;-75
2022/10/04 11:52:04;;;;;;;8.90;7.67;;;;;;;15.10;100.00;100889.28;5082934;28;20216;-75
2022/10/04 11:55:08;;;;;;;7.37;6.77;;;;;;;15.12;100.00;100890.13;5083423;28;20559;-76
2022/10/04 11:57:54;;;;;;;6.63;6.13;;;;;;;15.24;100.00;100883.81;5083909;28;20288;-73
2022/10/04 12:00:22;;;;;;;6.33;5.83;;;;;;;15.38;100.00;100887.03;5081374;28;20181;-74
2022/10/04 12:03:18;;;;;;;7.20;6.60;;;;;;;15.38;100.00;100884.41;5079223;28;20865;-74
2022/10/04 12:06:02;;;;;;;7.30;6.60;;;;;;;15.43;100.00;100883.47;5073172;28;20322;-72
2022/10/04 12:08:37;;;;;;;7.73;6.93;;;;;;;15.39;100.00;100882.66;5085666;28;20723;-73
2022/10/04 12:11:11;;;;;;;7.87;6.70;;;;;;;15.41;100.00;100874.81;5078958;28;20180;-75
2022/10/04 12:14:11;;;;;;;6.87;6.27;;;;;;;15.46;100.00;100870.34;5083005;28;20220;-75
2022/10/04 12:16:46;;;;;;;6.73;6.20;;;;;;;15.44;100.00;100883.44;5073083;28;20611;-75
2022/10/04 12:19:32;;;;;;;7.27;6.57;;;;;;;15.39;100.00;100872.22;5078753;28;20212;-75
2022/10/04 12:22:22;;;;;;;7.20;6.60;;;;;;;15.39;100.00;100880.91;5084348;28;20798;-73
2022/10/04 12:25:27;;;;;;;7.17;6.57;;;;;;;15.41;100.00;100872.22;5082619;28;20233;-76
2022/10/04 12:28:19;;;;;;;6.57;6.07;;;;;;;15.37;100.00;100869.66;5082467;28;20214;-76
2022/10/04 12:31:08;;;;;;;6.50;5.90;;;;;;;15.38;100.00;100866.16;5081472;28;20177;-74